createdAt,value
2023-05-18T00:02:26.000Z,0.00
2023-05-18T00:07:21.000Z,0.00
2023-05-18T00:12:15.000Z,0.00
2023-05-18T00:17:10.000Z,0.00
2023-05-18T00:22:02.000Z,0.00
2023-05-18T00:26:56.000Z,0.00
2023-05-18T00:31:50.000Z,0.00
2023-05-18T00:36:45.000Z,0.00
2023-05-18T00:41:39.000Z,0.00
2023-05-18T00:46:33.000Z,0.00
2023-05-18T00:51:27.000Z,0.00
2023-05-18T00:56:21.000Z,0.00
2023-05-18T01:01:15.000Z,0.00
2023-05-18T01:06:10.000Z,0.00
2023-05-18T01:11:04.000Z,0.00
2023-05-18T01:15:59.000Z,0.00
2023-05-18T01:20:53.000Z,0.00
2023-05-18T01:25:47.000Z,0.00
2023-05-18T01:30:41.000Z,0.00
2023-05-18T01:35:35.000Z,0.00
2023-05-18T01:40:30.000Z,0.00
2023-05-18T01:45:24.000Z,0.00
2023-05-18T01:50:18.000Z,0.00
2023-05-18T01:55:13.000Z,0.00
2023-05-18T02:00:07.000Z,0.00
2023-05-18T02:05:01.000Z,0.00
2023-05-18T02:09:55.000Z,0.00
2023-05-18T02:14:48.000Z,0.00
2023-05-18T02:19:43.000Z,0.00
2023-05-18T02:24:37.000Z,0.00
2023-05-18T02:29:31.000Z,0.00
2023-05-18T02:34:25.000Z,0.00
2023-05-18T02:39:19.000Z,0.00
2023-05-18T02:44:13.000Z,0.00
2023-05-18T02:49:08.000Z,0.00
2023-05-18T02:54:02.000Z,0.00
2023-05-18T02:58:56.000Z,0.00
2023-05-18T03:03:50.000Z,0.00
2023-05-18T03:08:44.000Z,0.00
2023-05-18T03:13:39.000Z,0.00
2023-05-18T03:18:31.000Z,1.67
2023-05-18T03:23:25.000Z,3.33
2023-05-18T03:28:19.000Z,6.67
2023-05-18T03:33:14.000Z,12.50
2023-05-18T03:38:08.000Z,20.83
2023-05-18T03:43:03.000Z,32.50
2023-05-18T03:47:57.000Z,47.50
2023-05-18T03:52:51.000Z,67.50
2023-05-18T03:57:45.000Z,90.83
2023-05-18T04:02:39.000Z,115.00
2023-05-18T04:07:34.000Z,140.00
2023-05-18T04:12:28.000Z,165.00
2023-05-18T04:17:22.000Z,189.17
2023-05-18T04:22:17.000Z,213.33
2023-05-18T04:27:11.000Z,238.33
2023-05-18T04:32:05.000Z,260.83
2023-05-18T04:36:59.000Z,282.50
2023-05-18T04:41:53.000Z,303.33
2023-05-18T04:46:48.000Z,323.33
2023-05-18T04:51:42.000Z,341.67
2023-05-18T04:56:34.000Z,360.00
2023-05-18T05:01:29.000Z,376.67
2023-05-18T05:06:23.000Z,392.50
2023-05-18T05:11:17.000Z,408.33
2023-05-18T05:16:11.000Z,424.17
2023-05-18T05:21:05.000Z,438.33
2023-05-18T05:26:00.000Z,453.33
2023-05-18T05:30:54.000Z,467.50
2023-05-18T05:35:49.000Z,481.67
2023-05-18T05:40:43.000Z,494.17
2023-05-18T05:45:38.000Z,506.67
2023-05-18T05:50:32.000Z,518.33
2023-05-18T05:55:26.000Z,529.17
2023-05-18T06:00:20.000Z,539.17
2023-05-18T06:05:15.000Z,549.17
2023-05-18T06:10:08.000Z,557.50
2023-05-18T06:15:02.000Z,565.83
2023-05-18T06:19:56.000Z,571.67
2023-05-18T06:24:49.000Z,577.50
2023-05-18T06:29:43.000Z,584.17
2023-05-18T06:34:37.000Z,590.00
2023-05-18T06:39:32.000Z,596.67
2023-05-18T06:44:25.000Z,602.50
2023-05-18T06:49:18.000Z,608.33
2023-05-18T06:54:13.000Z,614.17
2023-05-18T06:59:08.000Z,620.00
2023-05-18T07:04:02.000Z,624.17
2023-05-18T07:08:56.000Z,630.00
2023-05-18T07:13:51.000Z,635.00
2023-05-18T07:18:45.000Z,640.83
2023-05-18T07:23:39.000Z,646.67
2023-05-18T07:28:33.000Z,653.33
2023-05-18T07:33:27.000Z,660.83
2023-05-18T07:38:22.000Z,667.50
2023-05-18T07:43:16.000Z,673.33
2023-05-18T07:48:10.000Z,680.00
2023-05-18T07:53:04.000Z,693.33
2023-05-18T07:57:58.000Z,707.50
2023-05-18T08:02:52.000Z,730.83
2023-05-18T08:07:47.000Z,754.17
2023-05-18T08:12:42.000Z,776.67
2023-05-18T08:17:36.000Z,820.83
2023-05-18T08:22:30.000Z,867.50
2023-05-18T08:27:24.000Z,925.83
2023-05-18T08:32:19.000Z,963.33
2023-05-18T08:37:14.000Z,1024.17
2023-05-18T08:42:08.000Z,1086.67
2023-05-18T08:47:03.000Z,1143.33
2023-05-18T08:51:55.000Z,1208.33
2023-05-18T08:56:50.000Z,1344.17
2023-05-18T09:01:44.000Z,1131.67
2023-05-18T09:06:39.000Z,1806.67
2023-05-18T09:11:33.000Z,1920.83
2023-05-18T09:16:28.000Z,1721.67
2023-05-18T09:21:23.000Z,1526.67
2023-05-18T09:26:17.000Z,1675.83
2023-05-18T09:31:11.000Z,1706.67
2023-05-18T09:36:06.000Z,1808.33
2023-05-18T09:41:00.000Z,1933.33
2023-05-18T09:45:54.000Z,2419.17
2023-05-18T09:50:49.000Z,3136.67
2023-05-18T09:55:46.000Z,3483.33
2023-05-18T10:00:42.000Z,3579.17
2023-05-18T10:05:38.000Z,3605.00
2023-05-18T10:10:33.000Z,3684.17
2023-05-18T10:15:29.000Z,3736.67
2023-05-18T10:20:24.000Z,3735.83
2023-05-18T10:25:19.000Z,3780.83
2023-05-18T10:30:14.000Z,3760.83
2023-05-18T10:35:09.000Z,3838.33
2023-05-18T10:40:02.000Z,3960.83
2023-05-18T10:44:59.000Z,3994.17
2023-05-18T10:49:52.000Z,4042.50
2023-05-18T10:54:47.000Z,4193.33
2023-05-18T10:59:42.000Z,4156.67
2023-05-18T11:04:37.000Z,4205.83
2023-05-18T11:09:31.000Z,4320.00
2023-05-18T11:14:26.000Z,4425.83
2023-05-18T11:19:17.000Z,4430.83
2023-05-18T11:24:12.000Z,4433.33
2023-05-18T11:29:07.000Z,4480.00
2023-05-18T11:34:02.000Z,4545.83
2023-05-18T11:38:57.000Z,4594.17
2023-05-18T11:43:51.000Z,4668.33
2023-05-18T11:48:45.000Z,4755.00
2023-05-18T11:53:40.000Z,4846.67
2023-05-18T11:58:34.000Z,4951.67
2023-05-18T12:03:29.000Z,5056.67
2023-05-18T12:08:24.000Z,5173.33
2023-05-18T12:13:19.000Z,5250.00
2023-05-18T12:18:13.000Z,5349.17
2023-05-18T12:23:06.000Z,5464.17
2023-05-18T12:28:01.000Z,5570.00
2023-05-18T12:32:55.000Z,5694.17
2023-05-18T12:37:50.000Z,5794.17
2023-05-18T12:42:44.000Z,5886.67
2023-05-18T12:47:38.000Z,5994.17
2023-05-18T12:52:32.000Z,6110.00
2023-05-18T12:57:27.000Z,6234.17
2023-05-18T13:02:21.000Z,6329.17
2023-05-18T13:07:13.000Z,6451.67
2023-05-18T13:12:08.000Z,6641.67
2023-05-18T13:17:02.000Z,6733.33
2023-05-18T13:21:57.000Z,6835.83
2023-05-18T13:26:51.000Z,6951.67
2023-05-18T13:31:46.000Z,7079.17
2023-05-18T13:36:40.000Z,7195.83
2023-05-18T13:41:35.000Z,7255.00
2023-05-18T13:46:29.000Z,7407.50
2023-05-18T13:51:23.000Z,7525.83
2023-05-18T13:56:17.000Z,7571.67
2023-05-18T14:01:11.000Z,7693.33
2023-05-18T14:06:06.000Z,7843.33
2023-05-18T14:10:59.000Z,7910.00
2023-05-18T14:15:53.000Z,8003.33
2023-05-18T14:20:48.000Z,8085.00
2023-05-18T14:25:43.000Z,8205.83
2023-05-18T14:30:37.000Z,8265.83
2023-05-18T14:35:31.000Z,8346.67
2023-05-18T14:40:25.000Z,8426.67
2023-05-18T14:45:20.000Z,8519.17
2023-05-18T14:50:15.000Z,8542.50
2023-05-18T14:55:11.000Z,8605.83
2023-05-18T15:00:04.000Z,8573.33
2023-05-18T15:04:58.000Z,8569.17
2023-05-18T15:09:52.000Z,8626.67
2023-05-18T15:14:46.000Z,8593.33
2023-05-18T15:19:41.000Z,8587.50
2023-05-18T15:24:35.000Z,8636.67
2023-05-18T15:29:29.000Z,8704.17
2023-05-18T15:34:24.000Z,8484.17
2023-05-18T15:39:19.000Z,8760.00
2023-05-18T15:44:13.000Z,8656.67
2023-05-18T15:49:08.000Z,8431.67
2023-05-18T15:54:02.000Z,8480.00
2023-05-18T15:58:56.000Z,8540.00
2023-05-18T16:03:51.000Z,8462.50
2023-05-18T16:08:45.000Z,8467.50
2023-05-18T16:13:40.000Z,8204.17
2023-05-18T16:18:31.000Z,8240.83
2023-05-18T16:23:25.000Z,8162.50
2023-05-18T16:28:19.000Z,7890.83
2023-05-18T16:33:13.000Z,7850.83
2023-05-18T16:38:07.000Z,7977.50
2023-05-18T16:43:01.000Z,7836.67
2023-05-18T16:47:55.000Z,7682.50
2023-05-18T16:52:49.000Z,7549.17
2023-05-18T16:57:43.000Z,7402.50
2023-05-18T17:02:37.000Z,6902.50
2023-05-18T17:07:30.000Z,7094.17
2023-05-18T17:12:24.000Z,6865.83
2023-05-18T17:17:18.000Z,6605.00
2023-05-18T17:22:12.000Z,6301.67
2023-05-18T17:27:04.000Z,6162.50
2023-05-18T17:31:58.000Z,5960.83
2023-05-18T17:36:52.000Z,5685.83
2023-05-18T17:41:46.000Z,5471.67
2023-05-18T17:46:40.000Z,5166.67
2023-05-18T17:51:35.000Z,4886.67
2023-05-18T17:56:28.000Z,4518.33
2023-05-18T18:01:22.000Z,4148.33
2023-05-18T18:06:17.000Z,3687.50
2023-05-18T18:11:11.000Z,3167.50
2023-05-18T18:16:05.000Z,2743.33
2023-05-18T18:20:59.000Z,2289.17
2023-05-18T18:25:53.000Z,669.17
2023-05-18T18:30:48.000Z,568.33
2023-05-18T18:35:41.000Z,522.50
2023-05-18T18:40:34.000Z,697.50
2023-05-18T18:45:28.000Z,347.50
2023-05-18T18:50:21.000Z,235.83
2023-05-18T18:55:16.000Z,180.83
2023-05-18T19:00:09.000Z,129.17
2023-05-18T19:05:03.000Z,88.33
2023-05-18T19:09:57.000Z,58.33
2023-05-18T19:14:51.000Z,38.33
2023-05-18T19:19:44.000Z,25.00
2023-05-18T19:24:39.000Z,15.83
2023-05-18T19:29:33.000Z,9.17
2023-05-18T19:34:26.000Z,5.00
2023-05-18T19:39:19.000Z,2.50
2023-05-18T19:44:14.000Z,0.83
2023-05-18T19:49:08.000Z,0.83
2023-05-18T19:54:01.000Z,0.00
2023-05-18T19:58:56.000Z,0.00
2023-05-18T20:03:49.000Z,0.00
2023-05-18T20:08:44.000Z,0.00
2023-05-18T20:13:38.000Z,0.00
2023-05-18T20:18:32.000Z,0.00
2023-05-18T20:23:26.000Z,0.00
2023-05-18T20:28:20.000Z,0.00
2023-05-18T20:33:14.000Z,0.00
2023-05-18T20:38:08.000Z,0.00
2023-05-18T20:43:02.000Z,0.00
2023-05-18T20:47:56.000Z,0.00
2023-05-18T20:52:51.000Z,0.00
2023-05-18T20:57:45.000Z,0.00
2023-05-18T21:02:37.000Z,0.00
2023-05-18T21:07:31.000Z,0.00
2023-05-18T21:12:26.000Z,0.00
2023-05-18T21:17:20.000Z,0.00
2023-05-18T21:22:15.000Z,0.00
2023-05-18T21:27:09.000Z,0.00
2023-05-18T21:32:03.000Z,0.00
2023-05-18T21:36:58.000Z,0.00
2023-05-18T21:41:51.000Z,0.00
2023-05-18T21:46:46.000Z,0.00
2023-05-18T21:51:40.000Z,0.00
2023-05-18T21:56:34.000Z,0.00
2023-05-18T22:01:29.000Z,0.00
2023-05-18T22:06:23.000Z,0.00
2023-05-18T22:11:18.000Z,0.00
2023-05-18T22:16:12.000Z,0.00
2023-05-18T22:21:06.000Z,0.00
2023-05-18T22:26:00.000Z,0.00
2023-05-18T22:30:54.000Z,0.00
2023-05-18T22:35:49.000Z,0.00
2023-05-18T22:40:43.000Z,0.00
2023-05-18T22:45:38.000Z,0.00
2023-05-18T22:50:32.000Z,0.00
2023-05-18T22:55:26.000Z,0.00
2023-05-18T23:00:21.000Z,0.00
2023-05-18T23:05:15.000Z,0.00
2023-05-18T23:10:09.000Z,0.00
2023-05-18T23:15:04.000Z,0.00
2023-05-18T23:19:57.000Z,0.00
2023-05-18T23:24:51.000Z,0.00
2023-05-18T23:29:46.000Z,0.00
2023-05-18T23:34:40.000Z,0.00
2023-05-18T23:39:34.000Z,0.00
2023-05-18T23:44:28.000Z,0.00
2023-05-18T23:49:23.000Z,0.00
2023-05-18T23:54:17.000Z,0.00
2023-05-18T23:59:12.000Z,0.00
